sensor_id;sensor_type;location;lat;lon;timestamp;temperature;humidity
17331;DHT22;8783;52.448;4.638;2023-08-06T00:02:23;21.10;99.90
17331;DHT22;8783;52.448;4.638;2023-08-06T00:04:49;21.10;99.90
17331;DHT22;8783;52.448;4.638;2023-08-06T00:07:14;21.10;99.90
17331;DHT22;8783;52.448;4.638;2023-08-06T00:09:40;21.10;99.90
17331;DHT22;8783;52.448;4.638;2023-08-06T00:12:06;21.10;99.90
17331;DHT22;8783;52.448;4.638;2023-08-06T00:14:31;21.10;99.90
17331;DHT22;8783;52.448;4.638;2023-08-06T00:16:57;21.10;99.90
17331;DHT22;8783;52.448;4.638;2023-08-06T00:19:23;21.10;99.90
17331;DHT22;8783;52.448;4.638;2023-08-06T00:21:49;21.10;99.90
17331;DHT22;8783;52.448;4.638;2023-08-06T00:24:14;21.10;99.90
17331;DHT22;8783;52.448;4.638;2023-08-06T00:26:40;21.10;99.90
17331;DHT22;8783;52.448;4.638;2023-08-06T00:29:06;21.10;99.90
17331;DHT22;8783;52.448;4.638;2023-08-06T00:31:31;21.10;99.90
17331;DHT22;8783;52.448;4.638;2023-08-06T00:33:57;21.10;99.90
17331;DHT22;8783;52.448;4.638;2023-08-06T00:36:23;21.10;99.90
17331;DHT22;8783;52.448;4.638;2023-08-06T00:38:48;21.10;99.90
17331;DHT22;8783;52.448;4.638;2023-08-06T00:41:14;21.10;99.90
17331;DHT22;8783;52.448;4.638;2023-08-06T00:43:40;21.10;99.90
17331;DHT22;8783;52.448;4.638;2023-08-06T00:46:05;21.10;99.90
17331;DHT22;8783;52.448;4.638;2023-08-06T00:48:31;21.10;99.90
17331;DHT22;8783;52.448;4.638;2023-08-06T00:50:57;21.10;99.90
17331;DHT22;8783;52.448;4.638;2023-08-06T00:53:23;21.10;99.90
17331;DHT22;8783;52.448;4.638;2023-08-06T00:55:50;21.10;99.90
17331;DHT22;8783;52.448;4.638;2023-08-06T00:58:16;21.10;99.90
17331;DHT22;8783;52.448;4.638;2023-08-06T01:00:42;21.10;99.90
17331;DHT22;8783;52.448;4.638;2023-08-06T01:03:08;21.10;99.90
17331;DHT22;8783;52.448;4.638;2023-08-06T01:05:34;21.00;99.90
17331;DHT22;8783;52.448;4.638;2023-08-06T01:16:11;21.00;99.90
17331;DHT22;8783;52.448;4.638;2023-08-06T01:18:40;21.10;99.90
17331;DHT22;8783;52.448;4.638;2023-08-06T01:21:07;21.00;99.90
17331;DHT22;8783;52.448;4.638;2023-08-06T01:23:33;21.00;99.90
17331;DHT22;8783;52.448;4.638;2023-08-06T01:26:05;21.00;99.90
17331;DHT22;8783;52.448;4.638;2023-08-06T01:31:27;21.00;99.90
17331;DHT22;8783;52.448;4.638;2023-08-06T01:33:53;21.00;99.90
17331;DHT22;8783;52.448;4.638;2023-08-06T01:36:22;21.00;99.90
17331;DHT22;8783;52.448;4.638;2023-08-06T01:38:48;21.00;99.90
17331;DHT22;8783;52.448;4.638;2023-08-06T01:41:14;21.00;99.90
17331;DHT22;8783;52.448;4.638;2023-08-06T01:43:39;21.00;99.90
17331;DHT22;8783;52.448;4.638;2023-08-06T01:46:05;21.00;99.90
17331;DHT22;8783;52.448;4.638;2023-08-06T01:48:30;21.00;99.90
17331;DHT22;8783;52.448;4.638;2023-08-06T01:50:56;21.00;99.90
17331;DHT22;8783;52.448;4.638;2023-08-06T01:53:22;21.00;99.90
17331;DHT22;8783;52.448;4.638;2023-08-06T01:55:49;21.00;99.90
17331;DHT22;8783;52.448;4.638;2023-08-06T01:58:14;21.00;99.90
17331;DHT22;8783;52.448;4.638;2023-08-06T02:00:40;21.00;99.90
17331;DHT22;8783;52.448;4.638;2023-08-06T02:03:06;21.00;99.90
17331;DHT22;8783;52.448;4.638;2023-08-06T02:05:32;21.00;99.90
17331;DHT22;8783;52.448;4.638;2023-08-06T02:07:57;21.00;99.90
17331;DHT22;8783;52.448;4.638;2023-08-06T02:10:23;21.00;99.90
17331;DHT22;8783;52.448;4.638;2023-08-06T02:12:49;21.00;99.90
17331;DHT22;8783;52.448;4.638;2023-08-06T02:15:14;21.00;99.90
17331;DHT22;8783;52.448;4.638;2023-08-06T02:17:40;21.00;99.90
17331;DHT22;8783;52.448;4.638;2023-08-06T02:20:06;21.00;99.90
17331;DHT22;8783;52.448;4.638;2023-08-06T02:22:32;21.00;99.90
17331;DHT22;8783;52.448;4.638;2023-08-06T02:24:58;21.00;99.90
17331;DHT22;8783;52.448;4.638;2023-08-06T02:27:24;21.00;99.90
17331;DHT22;8783;52.448;4.638;2023-08-06T02:29:50;21.00;99.90
17331;DHT22;8783;52.448;4.638;2023-08-06T02:32:15;21.00;99.90
17331;DHT22;8783;52.448;4.638;2023-08-06T02:34:41;21.00;99.90
17331;DHT22;8783;52.448;4.638;2023-08-06T02:37:06;21.00;99.90
17331;DHT22;8783;52.448;4.638;2023-08-06T02:39:32;21.00;99.90
17331;DHT22;8783;52.448;4.638;2023-08-06T02:41:59;21.00;99.90
17331;DHT22;8783;52.448;4.638;2023-08-06T02:44:27;20.90;99.90
17331;DHT22;8783;52.448;4.638;2023-08-06T02:46:53;21.00;99.90
17331;DHT22;8783;52.448;4.638;2023-08-06T02:49:19;20.90;99.90
17331;DHT22;8783;52.448;4.638;2023-08-06T02:51:47;20.90;99.90
17331;DHT22;8783;52.448;4.638;2023-08-06T02:54:13;20.90;99.90
17331;DHT22;8783;52.448;4.638;2023-08-06T02:56:43;20.90;99.90
17331;DHT22;8783;52.448;4.638;2023-08-06T02:59:09;20.90;99.90
17331;DHT22;8783;52.448;4.638;2023-08-06T03:01:34;20.90;99.90
17331;DHT22;8783;52.448;4.638;2023-08-06T03:04:01;20.90;99.90
17331;DHT22;8783;52.448;4.638;2023-08-06T03:06:27;20.90;99.90
17331;DHT22;8783;52.448;4.638;2023-08-06T03:08:53;20.90;99.90
17331;DHT22;8783;52.448;4.638;2023-08-06T03:11:18;20.90;99.90
17331;DHT22;8783;52.448;4.638;2023-08-06T03:13:44;20.90;99.90
17331;DHT22;8783;52.448;4.638;2023-08-06T03:16:09;20.90;99.90
17331;DHT22;8783;52.448;4.638;2023-08-06T03:18:35;20.90;99.90
17331;DHT22;8783;52.448;4.638;2023-08-06T03:21:04;20.90;99.90
17331;DHT22;8783;52.448;4.638;2023-08-06T03:23:30;20.90;99.90
17331;DHT22;8783;52.448;4.638;2023-08-06T03:25:55;20.90;99.90
17331;DHT22;8783;52.448;4.638;2023-08-06T03:28:21;20.90;99.90
17331;DHT22;8783;52.448;4.638;2023-08-06T03:30:47;20.90;99.90
17331;DHT22;8783;52.448;4.638;2023-08-06T03:33:13;20.90;99.90
17331;DHT22;8783;52.448;4.638;2023-08-06T03:35:39;20.90;99.90
17331;DHT22;8783;52.448;4.638;2023-08-06T03:38:05;20.90;99.90
17331;DHT22;8783;52.448;4.638;2023-08-06T03:40:30;20.90;99.90
17331;DHT22;8783;52.448;4.638;2023-08-06T03:42:56;20.90;99.90
17331;DHT22;8783;52.448;4.638;2023-08-06T03:45:22;20.90;99.90
17331;DHT22;8783;52.448;4.638;2023-08-06T03:47:47;20.90;99.90
17331;DHT22;8783;52.448;4.638;2023-08-06T03:50:13;20.90;99.90
17331;DHT22;8783;52.448;4.638;2023-08-06T03:52:39;20.90;99.90
17331;DHT22;8783;52.448;4.638;2023-08-06T03:55:05;20.90;99.90
17331;DHT22;8783;52.448;4.638;2023-08-06T03:57:30;20.90;99.90
17331;DHT22;8783;52.448;4.638;2023-08-06T03:59:56;20.80;99.90
17331;DHT22;8783;52.448;4.638;2023-08-06T04:02:22;20.80;99.90
17331;DHT22;8783;52.448;4.638;2023-08-06T04:04:48;20.90;99.90
17331;DHT22;8783;52.448;4.638;2023-08-06T04:07:14;20.80;99.90
17331;DHT22;8783;52.448;4.638;2023-08-06T04:09:58;20.80;99.90
17331;DHT22;8783;52.448;4.638;2023-08-06T04:12:24;20.90;99.90
17331;DHT22;8783;52.448;4.638;2023-08-06T04:14:51;20.80;99.90
17331;DHT22;8783;52.448;4.638;2023-08-06T04:17:20;20.80;99.90
17331;DHT22;8783;52.448;4.638;2023-08-06T04:19:50;20.80;99.90
17331;DHT22;8783;52.448;4.638;2023-08-06T04:22:16;20.80;99.90
17331;DHT22;8783;52.448;4.638;2023-08-06T04:24:42;20.80;99.90
17331;DHT22;8783;52.448;4.638;2023-08-06T04:27:12;20.80;99.90
17331;DHT22;8783;52.448;4.638;2023-08-06T04:29:38;20.80;99.90
17331;DHT22;8783;52.448;4.638;2023-08-06T04:32:06;20.80;99.90
17331;DHT22;8783;52.448;4.638;2023-08-06T04:34:32;20.80;99.90
17331;DHT22;8783;52.448;4.638;2023-08-06T04:36:58;20.80;99.90
17331;DHT22;8783;52.448;4.638;2023-08-06T04:39:24;20.80;99.90
17331;DHT22;8783;52.448;4.638;2023-08-06T04:41:50;20.80;99.90
17331;DHT22;8783;52.448;4.638;2023-08-06T04:44:15;20.80;99.90
17331;DHT22;8783;52.448;4.638;2023-08-06T04:46:41;20.80;99.90
17331;DHT22;8783;52.448;4.638;2023-08-06T04:49:07;20.80;99.90
17331;DHT22;8783;52.448;4.638;2023-08-06T04:51:32;20.80;99.90
17331;DHT22;8783;52.448;4.638;2023-08-06T04:53:58;20.80;99.90
17331;DHT22;8783;52.448;4.638;2023-08-06T04:56:26;20.80;99.90
17331;DHT22;8783;52.448;4.638;2023-08-06T04:58:52;20.80;99.90
17331;DHT22;8783;52.448;4.638;2023-08-06T05:01:18;20.80;99.90
17331;DHT22;8783;52.448;4.638;2023-08-06T05:03:47;20.80;99.90
17331;DHT22;8783;52.448;4.638;2023-08-06T05:06:13;20.70;99.90
17331;DHT22;8783;52.448;4.638;2023-08-06T05:08:38;20.80;99.90
17331;DHT22;8783;52.448;4.638;2023-08-06T05:11:04;20.80;99.90
17331;DHT22;8783;52.448;4.638;2023-08-06T05:13:30;20.80;99.90
17331;DHT22;8783;52.448;4.638;2023-08-06T05:15:55;20.80;99.90
17331;DHT22;8783;52.448;4.638;2023-08-06T05:18:21;20.80;99.90
17331;DHT22;8783;52.448;4.638;2023-08-06T05:20:50;20.80;99.90
17331;DHT22;8783;52.448;4.638;2023-08-06T05:23:16;20.70;99.90
17331;DHT22;8783;52.448;4.638;2023-08-06T05:25:42;20.70;99.90
17331;DHT22;8783;52.448;4.638;2023-08-06T05:28:08;20.70;99.90
17331;DHT22;8783;52.448;4.638;2023-08-06T05:30:33;20.70;99.90
17331;DHT22;8783;52.448;4.638;2023-08-06T05:32:59;20.70;99.90
17331;DHT22;8783;52.448;4.638;2023-08-06T05:35:25;20.70;99.90
17331;DHT22;8783;52.448;4.638;2023-08-06T05:37:51;20.70;99.90
17331;DHT22;8783;52.448;4.638;2023-08-06T05:40:16;20.70;99.90
17331;DHT22;8783;52.448;4.638;2023-08-06T05:42:42;20.70;99.90
17331;DHT22;8783;52.448;4.638;2023-08-06T05:45:08;20.70;99.90
17331;DHT22;8783;52.448;4.638;2023-08-06T05:47:35;20.70;99.90
17331;DHT22;8783;52.448;4.638;2023-08-06T05:50:00;20.70;99.90
17331;DHT22;8783;52.448;4.638;2023-08-06T05:52:26;20.70;99.90
17331;DHT22;8783;52.448;4.638;2023-08-06T05:54:51;20.70;99.90
17331;DHT22;8783;52.448;4.638;2023-08-06T05:57:17;20.70;99.90
17331;DHT22;8783;52.448;4.638;2023-08-06T05:59:43;20.70;99.90
17331;DHT22;8783;52.448;4.638;2023-08-06T06:02:09;20.70;99.90
17331;DHT22;8783;52.448;4.638;2023-08-06T06:04:34;20.70;99.90
17331;DHT22;8783;52.448;4.638;2023-08-06T06:07:00;20.70;99.90
17331;DHT22;8783;52.448;4.638;2023-08-06T06:09:26;20.70;99.90
17331;DHT22;8783;52.448;4.638;2023-08-06T06:11:51;20.80;99.90
17331;DHT22;8783;52.448;4.638;2023-08-06T06:14:18;20.80;99.90
17331;DHT22;8783;52.448;4.638;2023-08-06T06:16:44;20.70;99.90
17331;DHT22;8783;52.448;4.638;2023-08-06T06:19:10;20.70;99.90
17331;DHT22;8783;52.448;4.638;2023-08-06T06:21:36;20.70;99.90
17331;DHT22;8783;52.448;4.638;2023-08-06T06:24:03;20.70;99.90
17331;DHT22;8783;52.448;4.638;2023-08-06T06:26:29;20.70;99.90
17331;DHT22;8783;52.448;4.638;2023-08-06T06:28:55;20.70;99.90
17331;DHT22;8783;52.448;4.638;2023-08-06T06:31:21;20.70;99.90
17331;DHT22;8783;52.448;4.638;2023-08-06T06:33:46;20.70;99.90
17331;DHT22;8783;52.448;4.638;2023-08-06T06:36:12;20.70;99.90
17331;DHT22;8783;52.448;4.638;2023-08-06T06:38:38;20.70;99.90
17331;DHT22;8783;52.448;4.638;2023-08-06T06:41:04;20.70;99.90
17331;DHT22;8783;52.448;4.638;2023-08-06T06:43:29;20.70;99.90
17331;DHT22;8783;52.448;4.638;2023-08-06T06:45:59;20.70;99.90
17331;DHT22;8783;52.448;4.638;2023-08-06T06:48:30;20.60;99.90
17331;DHT22;8783;52.448;4.638;2023-08-06T06:50:56;20.60;99.90
17331;DHT22;8783;52.448;4.638;2023-08-06T06:53:22;20.60;99.90
17331;DHT22;8783;52.448;4.638;2023-08-06T06:55:54;20.60;99.90
17331;DHT22;8783;52.448;4.638;2023-08-06T06:58:20;20.60;99.90
17331;DHT22;8783;52.448;4.638;2023-08-06T07:00:47;20.60;99.90
17331;DHT22;8783;52.448;4.638;2023-08-06T07:03:14;20.60;99.90
17331;DHT22;8783;52.448;4.638;2023-08-06T07:05:40;20.60;99.90
17331;DHT22;8783;52.448;4.638;2023-08-06T07:08:06;20.60;99.90
17331;DHT22;8783;52.448;4.638;2023-08-06T07:10:34;20.60;99.90
17331;DHT22;8783;52.448;4.638;2023-08-06T07:13:00;20.60;99.90
17331;DHT22;8783;52.448;4.638;2023-08-06T07:15:25;20.60;99.90
17331;DHT22;8783;52.448;4.638;2023-08-06T07:17:51;20.70;99.90
17331;DHT22;8783;52.448;4.638;2023-08-06T07:20:17;20.70;99.90
17331;DHT22;8783;52.448;4.638;2023-08-06T07:22:44;20.70;99.90
17331;DHT22;8783;52.448;4.638;2023-08-06T07:25:09;20.80;99.90
17331;DHT22;8783;52.448;4.638;2023-08-06T07:27:38;20.80;99.90
17331;DHT22;8783;52.448;4.638;2023-08-06T07:30:04;20.80;99.90
17331;DHT22;8783;52.448;4.638;2023-08-06T07:32:31;20.90;99.90
17331;DHT22;8783;52.448;4.638;2023-08-06T07:34:56;20.80;99.90
17331;DHT22;8783;52.448;4.638;2023-08-06T07:37:26;20.90;99.90
17331;DHT22;8783;52.448;4.638;2023-08-06T07:39:54;20.90;99.90
17331;DHT22;8783;52.448;4.638;2023-08-06T07:42:19;20.90;99.90
17331;DHT22;8783;52.448;4.638;2023-08-06T07:44:53;20.90;99.90
17331;DHT22;8783;52.448;4.638;2023-08-06T07:47:20;20.90;99.90
17331;DHT22;8783;52.448;4.638;2023-08-06T07:49:45;20.90;99.90
17331;DHT22;8783;52.448;4.638;2023-08-06T07:52:11;20.90;99.90
17331;DHT22;8783;52.448;4.638;2023-08-06T07:54:39;20.90;99.90
17331;DHT22;8783;52.448;4.638;2023-08-06T07:57:05;20.90;99.90
17331;DHT22;8783;52.448;4.638;2023-08-06T07:59:34;20.90;99.90
17331;DHT22;8783;52.448;4.638;2023-08-06T08:02:00;21.00;99.90
17331;DHT22;8783;52.448;4.638;2023-08-06T08:04:29;20.90;99.90
17331;DHT22;8783;52.448;4.638;2023-08-06T08:06:55;20.90;99.90
17331;DHT22;8783;52.448;4.638;2023-08-06T08:09:21;21.00;99.90
17331;DHT22;8783;52.448;4.638;2023-08-06T08:11:49;21.00;99.90
17331;DHT22;8783;52.448;4.638;2023-08-06T08:14:15;21.00;99.90
17331;DHT22;8783;52.448;4.638;2023-08-06T08:16:44;21.00;99.90
17331;DHT22;8783;52.448;4.638;2023-08-06T08:19:09;21.00;99.90
17331;DHT22;8783;52.448;4.638;2023-08-06T08:21:35;21.00;99.90
17331;DHT22;8783;52.448;4.638;2023-08-06T08:24:04;21.00;99.90
17331;DHT22;8783;52.448;4.638;2023-08-06T08:26:30;21.00;99.90
17331;DHT22;8783;52.448;4.638;2023-08-06T08:28:56;21.00;99.90
17331;DHT22;8783;52.448;4.638;2023-08-06T08:31:22;21.00;99.90
17331;DHT22;8783;52.448;4.638;2023-08-06T08:33:48;21.00;99.90
17331;DHT22;8783;52.448;4.638;2023-08-06T08:36:13;21.00;99.90
17331;DHT22;8783;52.448;4.638;2023-08-06T08:38:39;21.00;99.90
17331;DHT22;8783;52.448;4.638;2023-08-06T08:41:06;21.00;99.90
17331;DHT22;8783;52.448;4.638;2023-08-06T08:43:32;21.00;99.90
17331;DHT22;8783;52.448;4.638;2023-08-06T08:45:58;21.00;99.90
17331;DHT22;8783;52.448;4.638;2023-08-06T08:48:25;21.00;99.90
17331;DHT22;8783;52.448;4.638;2023-08-06T08:50:55;21.00;99.90
17331;DHT22;8783;52.448;4.638;2023-08-06T08:53:24;21.00;99.90
17331;DHT22;8783;52.448;4.638;2023-08-06T08:55:50;21.10;99.90
17331;DHT22;8783;52.448;4.638;2023-08-06T08:58:16;21.10;99.90
17331;DHT22;8783;52.448;4.638;2023-08-06T09:00:42;21.00;99.90
17331;DHT22;8783;52.448;4.638;2023-08-06T09:03:08;21.00;99.90
17331;DHT22;8783;52.448;4.638;2023-08-06T09:05:34;21.00;99.90
17331;DHT22;8783;52.448;4.638;2023-08-06T09:08:03;21.00;99.90
17331;DHT22;8783;52.448;4.638;2023-08-06T09:10:30;21.00;99.90
17331;DHT22;8783;52.448;4.638;2023-08-06T09:13:15;21.00;99.90
17331;DHT22;8783;52.448;4.638;2023-08-06T09:15:41;21.00;99.90
17331;DHT22;8783;52.448;4.638;2023-08-06T09:18:10;21.00;99.90
17331;DHT22;8783;52.448;4.638;2023-08-06T09:20:39;21.00;99.90
17331;DHT22;8783;52.448;4.638;2023-08-06T09:23:09;21.00;99.90
17331;DHT22;8783;52.448;4.638;2023-08-06T09:25:38;20.90;99.90
17331;DHT22;8783;52.448;4.638;2023-08-06T09:28:07;20.90;99.90
17331;DHT22;8783;52.448;4.638;2023-08-06T09:30:35;21.00;99.90
17331;DHT22;8783;52.448;4.638;2023-08-06T09:33:01;21.00;99.90
17331;DHT22;8783;52.448;4.638;2023-08-06T09:35:31;21.00;99.90
17331;DHT22;8783;52.448;4.638;2023-08-06T09:38:07;21.00;99.90
17331;DHT22;8783;52.448;4.638;2023-08-06T09:40:33;21.00;99.90
17331;DHT22;8783;52.448;4.638;2023-08-06T09:43:02;21.00;99.90
17331;DHT22;8783;52.448;4.638;2023-08-06T09:45:34;21.00;99.90
17331;DHT22;8783;52.448;4.638;2023-08-06T09:48:05;21.00;99.90
17331;DHT22;8783;52.448;4.638;2023-08-06T09:50:33;21.00;99.90
17331;DHT22;8783;52.448;4.638;2023-08-06T09:53:00;21.00;99.90
17331;DHT22;8783;52.448;4.638;2023-08-06T09:55:26;21.00;99.90
17331;DHT22;8783;52.448;4.638;2023-08-06T09:57:59;21.00;99.90
17331;DHT22;8783;52.448;4.638;2023-08-06T10:00:25;21.00;99.90
17331;DHT22;8783;52.448;4.638;2023-08-06T10:02:55;21.00;99.90
17331;DHT22;8783;52.448;4.638;2023-08-06T10:05:27;21.00;99.90
17331;DHT22;8783;52.448;4.638;2023-08-06T10:07:54;21.00;99.90
17331;DHT22;8783;52.448;4.638;2023-08-06T10:10:23;21.00;99.90
17331;DHT22;8783;52.448;4.638;2023-08-06T10:12:53;21.00;99.90
17331;DHT22;8783;52.448;4.638;2023-08-06T10:15:26;21.00;99.90
17331;DHT22;8783;52.448;4.638;2023-08-06T10:17:55;21.00;99.90
17331;DHT22;8783;52.448;4.638;2023-08-06T10:20:22;21.00;99.90
17331;DHT22;8783;52.448;4.638;2023-08-06T10:23:08;21.00;99.90
17331;DHT22;8783;52.448;4.638;2023-08-06T10:25:42;21.00;99.90
17331;DHT22;8783;52.448;4.638;2023-08-06T10:28:13;21.00;99.90
17331;DHT22;8783;52.448;4.638;2023-08-06T10:30:46;21.00;99.90
17331;DHT22;8783;52.448;4.638;2023-08-06T10:33:18;21.00;99.90
17331;DHT22;8783;52.448;4.638;2023-08-06T10:35:48;21.10;99.90
17331;DHT22;8783;52.448;4.638;2023-08-06T10:38:24;21.10;99.90
17331;DHT22;8783;52.448;4.638;2023-08-06T10:43:33;21.10;99.90
17331;DHT22;8783;52.448;4.638;2023-08-06T10:46:08;21.10;99.90
17331;DHT22;8783;52.448;4.638;2023-08-06T10:48:41;21.10;99.90
17331;DHT22;8783;52.448;4.638;2023-08-06T10:51:11;21.20;99.90
17331;DHT22;8783;52.448;4.638;2023-08-06T10:53:38;21.20;99.90
17331;DHT22;8783;52.448;4.638;2023-08-06T10:56:13;21.20;99.90
17331;DHT22;8783;52.448;4.638;2023-08-06T10:58:43;21.10;99.90
17331;DHT22;8783;52.448;4.638;2023-08-06T11:01:12;21.10;99.90
17331;DHT22;8783;52.448;4.638;2023-08-06T11:03:42;21.10;99.90
17331;DHT22;8783;52.448;4.638;2023-08-06T11:06:08;21.10;99.90
17331;DHT22;8783;52.448;4.638;2023-08-06T11:08:36;21.10;99.90
17331;DHT22;8783;52.448;4.638;2023-08-06T11:11:14;21.10;99.90
17331;DHT22;8783;52.448;4.638;2023-08-06T11:13:45;21.10;99.90
17331;DHT22;8783;52.448;4.638;2023-08-06T11:16:16;21.10;99.90
17331;DHT22;8783;52.448;4.638;2023-08-06T11:18:42;21.10;99.90
17331;DHT22;8783;52.448;4.638;2023-08-06T11:21:08;21.10;99.90
17331;DHT22;8783;52.448;4.638;2023-08-06T11:23:34;21.10;99.90
17331;DHT22;8783;52.448;4.638;2023-08-06T11:26:00;21.10;99.90
17331;DHT22;8783;52.448;4.638;2023-08-06T11:28:29;21.10;99.90
17331;DHT22;8783;52.448;4.638;2023-08-06T11:30:55;21.10;99.90
17331;DHT22;8783;52.448;4.638;2023-08-06T11:33:26;21.10;99.90
17331;DHT22;8783;52.448;4.638;2023-08-06T11:35:55;21.10;99.90
17331;DHT22;8783;52.448;4.638;2023-08-06T11:38:21;21.10;99.90
17331;DHT22;8783;52.448;4.638;2023-08-06T11:40:47;21.10;99.90
17331;DHT22;8783;52.448;4.638;2023-08-06T11:43:14;21.20;99.90
17331;DHT22;8783;52.448;4.638;2023-08-06T11:45:40;21.20;99.90
17331;DHT22;8783;52.448;4.638;2023-08-06T11:48:07;21.20;99.90
17331;DHT22;8783;52.448;4.638;2023-08-06T11:50:37;21.20;99.90
17331;DHT22;8783;52.448;4.638;2023-08-06T11:53:04;21.20;99.90
17331;DHT22;8783;52.448;4.638;2023-08-06T11:55:33;21.30;99.90
17331;DHT22;8783;52.448;4.638;2023-08-06T11:58:03;21.30;99.90
17331;DHT22;8783;52.448;4.638;2023-08-06T12:00:32;21.30;99.90
17331;DHT22;8783;52.448;4.638;2023-08-06T12:02:58;21.30;99.90
17331;DHT22;8783;52.448;4.638;2023-08-06T12:05:30;21.30;99.90
17331;DHT22;8783;52.448;4.638;2023-08-06T12:07:58;21.20;99.90
17331;DHT22;8783;52.448;4.638;2023-08-06T12:10:28;21.20;99.90
17331;DHT22;8783;52.448;4.638;2023-08-06T12:12:55;21.20;99.90
17331;DHT22;8783;52.448;4.638;2023-08-06T12:15:20;21.20;99.90
17331;DHT22;8783;52.448;4.638;2023-08-06T12:17:46;21.20;99.90
17331;DHT22;8783;52.448;4.638;2023-08-06T12:20:12;21.10;99.90
17331;DHT22;8783;52.448;4.638;2023-08-06T12:22:38;21.10;99.90
17331;DHT22;8783;52.448;4.638;2023-08-06T12:25:06;21.10;99.90
17331;DHT22;8783;52.448;4.638;2023-08-06T12:27:37;21.10;99.90
17331;DHT22;8783;52.448;4.638;2023-08-06T12:30:03;21.10;99.90
17331;DHT22;8783;52.448;4.638;2023-08-06T12:32:29;21.10;99.90
17331;DHT22;8783;52.448;4.638;2023-08-06T12:34:55;21.00;99.90
17331;DHT22;8783;52.448;4.638;2023-08-06T12:37:25;21.00;99.90
17331;DHT22;8783;52.448;4.638;2023-08-06T12:39:51;21.00;99.90
17331;DHT22;8783;52.448;4.638;2023-08-06T12:42:17;21.00;99.90
17331;DHT22;8783;52.448;4.638;2023-08-06T12:44:43;21.00;99.90
17331;DHT22;8783;52.448;4.638;2023-08-06T12:47:08;21.00;99.90
17331;DHT22;8783;52.448;4.638;2023-08-06T12:49:34;21.00;99.90
17331;DHT22;8783;52.448;4.638;2023-08-06T12:52:00;21.00;99.90
17331;DHT22;8783;52.448;4.638;2023-08-06T12:54:27;21.00;99.90
17331;DHT22;8783;52.448;4.638;2023-08-06T12:57:01;21.00;99.90
17331;DHT22;8783;52.448;4.638;2023-08-06T12:59:27;21.00;99.90
17331;DHT22;8783;52.448;4.638;2023-08-06T13:01:55;20.90;99.90
17331;DHT22;8783;52.448;4.638;2023-08-06T13:04:24;20.90;99.90
17331;DHT22;8783;52.448;4.638;2023-08-06T13:06:53;20.90;99.90
17331;DHT22;8783;52.448;4.638;2023-08-06T13:09:19;20.90;99.90
17331;DHT22;8783;52.448;4.638;2023-08-06T13:11:46;20.90;99.90
17331;DHT22;8783;52.448;4.638;2023-08-06T13:14:13;20.90;99.90
17331;DHT22;8783;52.448;4.638;2023-08-06T13:16:43;20.90;99.90
17331;DHT22;8783;52.448;4.638;2023-08-06T13:19:10;20.90;99.90
17331;DHT22;8783;52.448;4.638;2023-08-06T13:24:08;20.90;99.90
17331;DHT22;8783;52.448;4.638;2023-08-06T13:26:34;20.80;99.90
17331;DHT22;8783;52.448;4.638;2023-08-06T13:29:02;20.80;99.90
17331;DHT22;8783;52.448;4.638;2023-08-06T13:31:28;20.80;99.90
17331;DHT22;8783;52.448;4.638;2023-08-06T13:33:55;20.80;99.90
17331;DHT22;8783;52.448;4.638;2023-08-06T13:36:22;20.80;99.90
17331;DHT22;8783;52.448;4.638;2023-08-06T13:38:54;20.80;99.90
17331;DHT22;8783;52.448;4.638;2023-08-06T13:41:22;20.80;99.90
17331;DHT22;8783;52.448;4.638;2023-08-06T13:43:49;20.70;99.90
17331;DHT22;8783;52.448;4.638;2023-08-06T13:46:15;20.70;99.90
17331;DHT22;8783;52.448;4.638;2023-08-06T13:48:46;20.70;99.90
17331;DHT22;8783;52.448;4.638;2023-08-06T13:51:12;20.60;99.90
17331;DHT22;8783;52.448;4.638;2023-08-06T13:53:41;20.60;99.90
17331;DHT22;8783;52.448;4.638;2023-08-06T13:56:12;20.60;99.90
17331;DHT22;8783;52.448;4.638;2023-08-06T13:58:40;20.60;99.90
17331;DHT22;8783;52.448;4.638;2023-08-06T14:01:10;20.60;99.90
17331;DHT22;8783;52.448;4.638;2023-08-06T14:03:36;20.60;99.90
17331;DHT22;8783;52.448;4.638;2023-08-06T14:06:02;20.60;99.90
17331;DHT22;8783;52.448;4.638;2023-08-06T14:08:28;20.50;99.90
17331;DHT22;8783;52.448;4.638;2023-08-06T14:10:53;20.50;99.90
17331;DHT22;8783;52.448;4.638;2023-08-06T14:13:23;20.50;99.90
17331;DHT22;8783;52.448;4.638;2023-08-06T14:15:48;20.50;99.90
17331;DHT22;8783;52.448;4.638;2023-08-06T14:18:14;20.50;99.90
17331;DHT22;8783;52.448;4.638;2023-08-06T14:20:41;20.50;99.90
17331;DHT22;8783;52.448;4.638;2023-08-06T14:23:09;20.40;99.90
17331;DHT22;8783;52.448;4.638;2023-08-06T14:25:38;20.50;99.90
17331;DHT22;8783;52.448;4.638;2023-08-06T14:28:04;20.40;99.90
17331;DHT22;8783;52.448;4.638;2023-08-06T14:30:32;20.40;99.90
17331;DHT22;8783;52.448;4.638;2023-08-06T14:32:58;20.40;99.90
17331;DHT22;8783;52.448;4.638;2023-08-06T14:35:26;20.40;99.90
17331;DHT22;8783;52.448;4.638;2023-08-06T14:37:54;20.30;99.90
17331;DHT22;8783;52.448;4.638;2023-08-06T14:40:20;20.40;99.90
17331;DHT22;8783;52.448;4.638;2023-08-06T14:42:46;20.40;99.90
17331;DHT22;8783;52.448;4.638;2023-08-06T14:45:14;20.30;99.90
17331;DHT22;8783;52.448;4.638;2023-08-06T14:47:40;20.30;99.90
17331;DHT22;8783;52.448;4.638;2023-08-06T14:50:06;20.30;99.90
17331;DHT22;8783;52.448;4.638;2023-08-06T14:52:32;20.30;99.90
17331;DHT22;8783;52.448;4.638;2023-08-06T14:54:57;20.30;99.90
17331;DHT22;8783;52.448;4.638;2023-08-06T14:57:26;20.30;99.90
17331;DHT22;8783;52.448;4.638;2023-08-06T14:59:53;20.40;99.90
17331;DHT22;8783;52.448;4.638;2023-08-06T15:02:21;20.40;99.90
17331;DHT22;8783;52.448;4.638;2023-08-06T15:04:47;20.40;99.90
17331;DHT22;8783;52.448;4.638;2023-08-06T15:07:13;20.50;99.90
17331;DHT22;8783;52.448;4.638;2023-08-06T15:09:38;20.50;99.90
17331;DHT22;8783;52.448;4.638;2023-08-06T15:12:04;20.50;99.90
17331;DHT22;8783;52.448;4.638;2023-08-06T15:14:30;20.50;99.90
17331;DHT22;8783;52.448;4.638;2023-08-06T15:16:56;20.50;99.90
17331;DHT22;8783;52.448;4.638;2023-08-06T15:19:23;20.50;99.90
17331;DHT22;8783;52.448;4.638;2023-08-06T15:21:50;20.50;99.90
17331;DHT22;8783;52.448;4.638;2023-08-06T15:24:16;20.50;99.90
17331;DHT22;8783;52.448;4.638;2023-08-06T15:26:41;20.50;99.90
17331;DHT22;8783;52.448;4.638;2023-08-06T15:29:07;20.50;99.90
17331;DHT22;8783;52.448;4.638;2023-08-06T15:31:39;20.50;99.90
17331;DHT22;8783;52.448;4.638;2023-08-06T15:34:06;20.50;99.90
17331;DHT22;8783;52.448;4.638;2023-08-06T15:36:35;20.50;99.90
17331;DHT22;8783;52.448;4.638;2023-08-06T15:39:01;20.60;99.90
17331;DHT22;8783;52.448;4.638;2023-08-06T15:41:29;20.60;99.90
17331;DHT22;8783;52.448;4.638;2023-08-06T15:43:55;20.50;99.90
17331;DHT22;8783;52.448;4.638;2023-08-06T15:46:20;20.60;99.90
17331;DHT22;8783;52.448;4.638;2023-08-06T15:48:46;20.50;99.90
17331;DHT22;8783;52.448;4.638;2023-08-06T15:51:12;20.60;99.90
17331;DHT22;8783;52.448;4.638;2023-08-06T15:53:37;20.60;99.90
17331;DHT22;8783;52.448;4.638;2023-08-06T15:56:03;20.60;99.90
17331;DHT22;8783;52.448;4.638;2023-08-06T15:58:30;20.60;99.90
17331;DHT22;8783;52.448;4.638;2023-08-06T16:00:57;20.60;99.90